Saturday, August 1, 2015, 1:44 AM EDT

KESN, Easton / Newman Field

Location: Easton, MD, United States Lat: 38.8
Local Time: 1:44 AM EDT ( 5:44 GMT) Lon: -76.067
Time Zone: US/Eastern Elev: 72 ft

Show me the last for .
Show Decoded

2015-08-01 01:01 METAR KESN 010501Z AUTO 00000KT 10SM CLR 23/21 A2993 RMK AO2 T02310210 =
2015-08-01 00:01 METAR KESN 010401Z AUTO 00000KT 10SM CLR 24/20 A2993 RMK AO2 T02440202 =
2015-07-31 23:32 METAR KESN 010341Z AUTO 00000KT 10SM CLR 24/20 A2993 =
2015-07-31 23:32 METAR KESN 010341Z AUTO 00000KT 10SM CLR 24/20 A2993 RMK AO2 T02390202 =
2015-07-31 23:13 METAR KESN 010321Z AUTO 00000KT 10SM CLR 25/20 A2993 =
2015-07-31 23:11 METAR KESN 010321Z AUTO 00000KT 10SM CLR 25/20 A2993 RMK AO2 T02490199 =
2015-07-31 23:01 METAR KESN 010301Z AUTO 00000KT 10SM CLR 25/20 A2993 RMK AO2 T02470200 =
2015-07-31 22:27 METAR KESN 010241Z AUTO 00000KT 10SM CLR 24/20 A2993 RMK AO2 T02420200 =
2015-07-31 22:14 METAR KESN 010221Z AUTO 00000KT 10SM CLR 25/20 A2993 =
2015-07-31 22:08 METAR KESN 010221Z AUTO 00000KT 10SM CLR 25/20 A2993 RMK AO2 T02480200 =
2015-07-31 22:01 METAR KESN 010201Z AUTO 00000KT 10SM CLR 25/20 A2992 RMK AO2 T02460197 =
2015-07-31 19:50 METAR KESN 312350Z 00000KT 10SM SKC 28/20 A2989 =
2015-07-31 18:50 METAR KESN 312250Z 00000KT 10SM SKC 30/17 A2988 =
2015-07-31 17:50 METAR KESN 312150Z 34005KT 10SM CLR 32/16 A2990 =
2015-07-31 16:50 METAR KESN 312050Z 34005KT 10SM FEW060 32/16 A2990 =
2015-07-31 15:50 METAR KESN 311950Z VRB05KT 10SM FEW080 31/16 A2991 =
2015-07-31 13:50 METAR KESN 311750Z 33006KT 10SM FEW120 31/16 A2995 =
2015-07-31 12:50 METAR KESN 311650Z 31004KT 10SM FEW120 30/17 A2996 =
2015-07-31 11:50 METAR KESN 311550Z 34006KT 10SM SKC 30/16 A2997 =
2015-07-31 09:50 METAR KESN 311350Z 33005KT 10SM SKC 28/19 A2997 =
2015-07-31 08:50 METAR KESN 311250Z 33005KT 10SM SKC 26/20 A2997 =
2015-07-31 07:50 METAR KESN 311150Z 00000KT 10SM SKC 24/19 A2996 =
2015-07-31 06:50 METAR KESN 311050Z 00000KT 10SM SKC 22/19 A2995 =
2015-07-31 05:55 METAR KESN 310955Z AUTO 35004KT 10SM CLR 22/22 A2993 RMK AO2 T02200220 =
2015-07-31 05:45 METAR KESN 310945Z 34005KT 7SM FEW150 21/21 A2994 =
2015-07-31 05:28 METAR KESN 310939Z AUTO 00000KT 10SM CLR 22/22 A2993 =
2015-07-31 05:27 METAR KESN 310939Z AUTO 00000KT 10SM CLR 22/22 A2993 RMK AO2 T02230223 =
2015-07-31 05:10 METAR KESN 310919Z AUTO 01004KT 10SM CLR 23/23 A2993 =
2015-07-31 05:09 METAR KESN 310919Z AUTO 01004KT 10SM CLR 23/23 A2993 RMK AO2 T02270227 =
2015-07-31 04:59 METAR KESN 310859Z AUTO 02003KT 10SM CLR 22/22 A2993 RMK AO2 T02240224 =
2015-07-31 04:26 METAR KESN 310839Z AUTO 01003KT 10SM CLR 22/22 A2993 =
2015-07-31 04:26 METAR KESN 310839Z AUTO 01003KT 10SM CLR 22/22 A2993 RMK AO2 T02240224 =
2015-07-31 04:14 METAR KESN 310819Z AUTO 00000KT 1/2SM FG BKN001 22/22 A2993 =
2015-07-31 04:06 METAR KESN 310819Z AUTO 00000KT 1/2SM FG BKN001 22/22 A2993 RMK AO2 T02230223 =
2015-07-31 03:59 METAR KESN 310759Z AUTO 00000KT 1 1/4SM BR BKN001 23/23 A2993 RMK AO2 VIS 1/2V5
                 T02250225 =
2015-07-31 03:28 METAR KESN 310739Z AUTO 00000KT 1/2SM FG BKN001 23/23 A2993 =
2015-07-31 03:27 METAR KESN 310739Z AUTO 00000KT 1/2SM FG BKN001 23/23 A2993 RMK AO2 T02260226 =
2015-07-31 03:14 METAR KESN 310719Z AUTO 00000KT 1/2SM FG OVC001 23/23 A2993 =
2015-07-31 03:07 METAR KESN 310719Z AUTO 00000KT 1/2SM FG OVC001 23/23 A2993 RMK AO2 T02300230 =
2015-07-31 02:59 METAR KESN 310659Z AUTO 00000KT 3/4SM BR OVC001 23/23 A2992 RMK AO2 VIS 1/4V5
                 T02310231 =
2015-07-31 02:28 METAR KESN 310639Z AUTO 00000KT 3/4SM BR OVC001 24/24 A2992 =
2015-07-31 02:27 METAR KESN 310639Z AUTO 00000KT 3/4SM BR OVC001 24/24 A2992 RMK AO2 T02370237 =
2015-07-31 02:12 METAR KESN 310619Z AUTO 00000KT 3/4SM BR BKN001 BKN110 24/24 A2992 =
2015-07-31 02:07 METAR KESN 310619Z AUTO 00000KT 3/4SM BR BKN001 BKN110 24/24 A2992 RMK AO2 VIS
                 1/2V5 T02360236 =
2015-07-31 01:59 METAR KESN 310559Z AUTO 00000KT 4SM BR CLR 24/24 A2992 RMK AO2 T02380238 10261
                 20237 403310237 =

Support USWX by starting your Amazon purchase here.